Time;durP1;ratioP1;P1;durP2;ratioP2;P2;SDS_P1;SDS_P2;PMS_P1;PMS_P2;Temp;Humidity;BMP_temperature;BMP_pressure;BME280_temperature;BME280_humidity;BME280_pressure;Samples;Min_cycle;Max_cycle;Signal;HPM_P1;HPM_P2
2023/06/26 00:00:25;;;;;;;;;;;29.10;49.00;;;;;;5105959;27;43128;-81
2023/06/26 00:02:51;;;;;;;;;;;29.10;48.40;;;;;;5106774;27;43655;-82
2023/06/26 00:05:16;;;;;;;;;;;29.10;48.40;;;;;;5105833;27;42818;-82
2023/06/26 00:07:42;;;;;;;;;;;29.00;48.30;;;;;;5107489;27;43645;-82
2023/06/26 00:10:07;;;;;;;;;;;29.10;49.10;;;;;;5107171;27;42980;-80
2023/06/26 00:12:33;;;;;;;;;;;29.10;48.60;;;;;;5107332;27;42927;-80
2023/06/26 00:14:59;;;;;;;;;;;29.10;48.60;;;;;;5106572;27;42994;-82
2023/06/26 00:17:24;;;;;;;;;;;29.10;48.60;;;;;;5106575;27;43450;-82
2023/06/26 00:19:50;;;;;;;;;;;29.00;48.60;;;;;;5106520;27;43086;-82
2023/06/26 00:22:15;;;;;;;;;;;29.10;49.20;;;;;;5107193;27;44141;-81
2023/06/26 00:24:41;;;;;;;;;;;29.10;48.60;;;;;;5106015;27;42967;-82
2023/06/26 00:27:07;;;;;;;;;;;29.10;49.20;;;;;;5104803;27;44004;-82
2023/06/26 00:29:32;;;;;;;;;;;29.10;49.30;;;;;;5106480;27;43030;-82
2023/06/26 00:31:58;;;;;;;;;;;29.00;49.20;;;;;;5107074;27;43667;-80
2023/06/26 00:34:23;;;;;;;;;;;29.00;48.70;;;;;;5106587;27;42894;-82
2023/06/26 00:36:49;;;;;;;;;;;29.00;48.90;;;;;;5106680;27;42937;-82
2023/06/26 00:39:14;;;;;;;;;;;29.00;48.90;;;;;;5106618;27;43350;-81
2023/06/26 00:41:40;;;;;;;;;;;29.00;48.80;;;;;;5106468;27;42989;-81
2023/06/26 00:44:06;;;;;;;;;;;28.90;48.80;;;;;;5106496;27;42959;-80
2023/06/26 00:46:32;;;;;;;;;;;28.80;48.80;;;;;;5106297;27;43438;-80
2023/06/26 00:49:01;;;;;;;;;;;29.00;49.40;;;;;;5106918;27;42763;-79
2023/06/26 00:51:27;;;;;;;;;;;29.00;48.80;;;;;;5106563;27;43660;-79
2023/06/26 00:53:53;;;;;;;;;;;29.00;48.70;;;;;;5106202;27;42990;-81
2023/06/26 00:56:19;;;;;;;;;;;29.00;48.70;;;;;;5106635;27;42862;-81
2023/06/26 00:58:45;;;;;;;;;;;28.90;48.60;;;;;;5105970;27;42848;-81
2023/06/26 01:01:15;;;;;;;;;;;29.10;48.80;;;;;;5103226;27;42937;-81
2023/06/26 01:03:41;;;;;;;;;;;28.80;48.70;;;;;;5097351;27;42975;-81
2023/06/26 01:06:09;;;;;;;;;;;29.00;48.80;;;;;;5104955;27;42991;-81
2023/06/26 01:08:34;;;;;;;;;;;28.90;49.20;;;;;;5104626;27;43107;-81
2023/06/26 01:11:00;;;;;;;;;;;29.00;48.80;;;;;;5105227;27;42772;-82
2023/06/26 01:13:26;;;;;;;;;;;28.90;48.70;;;;;;5105828;27;42964;-81
2023/06/26 01:15:52;;;;;;;;;;;28.90;48.80;;;;;;5106061;27;42984;-80
2023/06/26 01:18:18;;;;;;;;;;;28.90;48.80;;;;;;5105701;27;42987;-80
2023/06/26 01:20:43;;;;;;;;;;;29.00;49.40;;;;;;5104984;27;43540;-80
2023/06/26 01:23:15;;;;;;;;;;;29.00;49.30;;;;;;5106403;27;43016;-81
2023/06/26 01:25:47;;;;;;;;;;;28.90;49.20;;;;;;5105689;27;42806;-80
2023/06/26 01:28:13;;;;;;;;;;;28.90;49.30;;;;;;5094422;27;43105;-81
2023/06/26 01:30:41;;;;;;;;;;;28.90;48.70;;;;;;5104417;27;43664;-81
2023/06/26 01:33:06;;;;;;;;;;;28.90;49.10;;;;;;5106064;27;42931;-81
2023/06/26 01:35:32;;;;;;;;;;;28.90;48.70;;;;;;5105707;27;43367;-81
2023/06/26 01:38:17;;;;;;;;;;;28.80;48.70;;;;;;5105035;27;43017;-80
2023/06/26 01:40:45;;;;;;;;;;;28.90;48.80;;;;;;5105286;27;43031;-80
2023/06/26 01:43:15;;;;;;;;;;;28.90;49.20;;;;;;5106273;27;42968;-81
2023/06/26 01:45:42;;;;;;;;;;;28.90;48.80;;;;;;5105403;27;43459;-79
2023/06/26 01:48:09;;;;;;;;;;;28.90;49.30;;;;;;5096552;27;43031;-79
2023/06/26 01:50:37;;;;;;;;;;;28.90;49.40;;;;;;5100541;27;64339;-81
2023/06/26 01:53:08;;;;;;;;;;;28.80;48.80;;;;;;5103880;27;43160;-80
2023/06/26 01:55:44;;;;;;;;;;;28.90;48.80;;;;;;5105560;27;43704;-81
2023/06/26 01:58:10;;;;;;;;;;;28.80;49.10;;;;;;5106088;27;42997;-82
2023/06/26 02:00:36;;;;;;;;;;;28.80;48.70;;;;;;5105104;27;43426;-81
2023/06/26 02:03:03;;;;;;;;;;;28.80;48.60;;;;;;5105456;27;42951;-81
2023/06/26 02:05:30;;;;;;;;;;;28.80;48.60;;;;;;5104751;27;43116;-81
2023/06/26 02:07:56;;;;;;;;;;;28.80;48.60;;;;;;5104368;27;43051;-81
2023/06/26 02:10:21;;;;;;;;;;;28.80;48.70;;;;;;5102399;27;45450;-81
2023/06/26 02:12:47;;;;;;;;;;;28.80;48.70;;;;;;5105190;27;43018;-80
2023/06/26 02:15:12;;;;;;;;;;;28.80;48.60;;;;;;5082905;27;44007;-80
2023/06/26 02:17:38;;;;;;;;;;;28.80;49.20;;;;;;5095267;27;42961;-80
2023/06/26 02:20:04;;;;;;;;;;;28.70;48.50;;;;;;5103482;27;42921;-80
2023/06/26 02:22:29;;;;;;;;;;;28.80;48.50;;;;;;5104066;27;43035;-80
2023/06/26 02:24:55;;;;;;;;;;;28.70;48.40;;;;;;5103230;27;42960;-80
2023/06/26 02:27:20;;;;;;;;;;;28.70;48.40;;;;;;5104676;27;43320;-81
2023/06/26 02:29:46;;;;;;;;;;;28.70;48.40;;;;;;5104680;27;43121;-80
2023/06/26 02:32:11;;;;;;;;;;;28.60;48.30;;;;;;5103721;27;42902;-80
2023/06/26 02:34:37;;;;;;;;;;;28.70;49.00;;;;;;5091221;27;43019;-81
2023/06/26 02:37:02;;;;;;;;;;;28.70;48.40;;;;;;5104992;27;42928;-79
2023/06/26 02:39:28;;;;;;;;;;;28.70;48.50;;;;;;5090409;27;44571;-81
2023/06/26 02:41:54;;;;;;;;;;;28.60;48.40;;;;;;5104034;27;43126;-82
2023/06/26 02:44:19;;;;;;;;;;;28.60;48.30;;;;;;5103969;27;43604;-81
2023/06/26 02:46:45;;;;;;;;;;;28.70;48.30;;;;;;5104577;27;43055;-80
2023/06/26 02:49:10;;;;;;;;;;;28.70;48.40;;;;;;5105312;27;42885;-79
2023/06/26 02:51:36;;;;;;;;;;;28.70;48.40;;;;;;5104002;27;43168;-80
2023/06/26 02:54:01;;;;;;;;;;;28.60;48.40;;;;;;5103716;27;44481;-80
2023/06/26 02:56:28;;;;;;;;;;;28.70;48.40;;;;;;5104918;27;42928;-81
2023/06/26 02:58:56;;;;;;;;;;;28.70;48.40;;;;;;5103595;27;43002;-81
2023/06/26 03:01:22;;;;;;;;;;;28.70;48.40;;;;;;5104502;27;43047;-81
2023/06/26 03:03:48;;;;;;;;;;;28.70;48.40;;;;;;5104678;27;43649;-81
2023/06/26 03:06:14;;;;;;;;;;;28.70;48.40;;;;;;5103891;27;42991;-80
2023/06/26 03:08:39;;;;;;;;;;;28.70;49.00;;;;;;5103870;27;43619;-80
2023/06/26 03:11:05;;;;;;;;;;;28.60;48.50;;;;;;5099885;27;42905;-80
2023/06/26 03:13:32;;;;;;;;;;;28.70;49.10;;;;;;5094585;27;43371;-80
2023/06/26 03:15:57;;;;;;;;;;;28.60;48.40;;;;;;5090641;27;42898;-80
2023/06/26 03:18:22;;;;;;;;;;;28.60;48.50;;;;;;5103564;27;43753;-81
2023/06/26 03:20:48;;;;;;;;;;;28.60;48.50;;;;;;5104067;27;42941;-80
2023/06/26 03:23:13;;;;;;;;;;;28.60;48.50;;;;;;5104129;27;43538;-81
2023/06/26 03:25:39;;;;;;;;;;;28.60;48.50;;;;;;5104231;27;43046;-79
2023/06/26 03:28:04;;;;;;;;;;;28.60;48.40;;;;;;5104734;27;42936;-79
2023/06/26 03:30:30;;;;;;;;;;;28.60;48.40;;;;;;5104439;27;43007;-79
2023/06/26 03:32:56;;;;;;;;;;;28.60;48.30;;;;;;5103801;27;43659;-79
2023/06/26 03:35:22;;;;;;;;;;;28.60;48.40;;;;;;5105311;27;42921;-81
2023/06/26 03:37:48;;;;;;;;;;;28.50;48.30;;;;;;5106147;27;45168;-80
2023/06/26 03:40:14;;;;;;;;;;;28.60;48.40;;;;;;5107873;27;42978;-79
2023/06/26 03:42:39;;;;;;;;;;;28.60;48.30;;;;;;5108062;27;42900;-80
2023/06/26 03:45:05;;;;;;;;;;;28.60;48.20;;;;;;5104216;27;42841;-81
2023/06/26 03:47:31;;;;;;;;;;;28.60;48.90;;;;;;5097656;27;43051;-81
2023/06/26 03:49:56;;;;;;;;;;;28.50;48.20;;;;;;5107256;27;43206;-81
2023/06/26 03:52:22;;;;;;;;;;;28.50;48.10;;;;;;5106630;27;43660;-81
2023/06/26 03:54:48;;;;;;;;;;;28.50;48.10;;;;;;5106631;27;42992;-79
2023/06/26 03:57:14;;;;;;;;;;;28.50;48.10;;;;;;5106671;27;43513;-80
2023/06/26 03:59:39;;;;;;;;;;;28.50;48.10;;;;;;5106452;27;42960;-80
2023/06/26 04:02:05;;;;;;;;;;;28.50;48.10;;;;;;5106627;27;42948;-81
2023/06/26 04:04:30;;;;;;;;;;;28.50;48.70;;;;;;5106880;27;43016;-80
2023/06/26 04:06:58;;;;;;;;;;;;;;;;;;5107247;27;43009;-80
2023/06/26 04:09:24;;;;;;;;;;;28.50;48.00;;;;;;5107090;27;42904;-80
2023/06/26 04:11:50;;;;;;;;;;;28.50;48.00;;;;;;5105672;27;43026;-81
2023/06/26 04:14:15;;;;;;;;;;;28.50;48.10;;;;;;5107135;27;42916;-81
2023/06/26 04:16:41;;;;;;;;;;;28.50;48.10;;;;;;5106190;27;42858;-80
2023/06/26 04:19:06;;;;;;;;;;;28.50;48.00;;;;;;5107013;27;42888;-81
2023/06/26 04:21:32;;;;;;;;;;;28.50;48.00;;;;;;5106333;27;43443;-80
2023/06/26 04:23:57;;;;;;;;;;;28.50;48.00;;;;;;5106810;27;42953;-80
2023/06/26 04:26:23;;;;;;;;;;;28.50;48.00;;;;;;5106569;27;42819;-81
2023/06/26 04:28:48;;;;;;;;;;;28.50;48.10;;;;;;5106764;27;42849;-80
2023/06/26 04:31:14;;;;;;;;;;;28.50;48.10;;;;;;5106279;27;43038;-80
2023/06/26 04:33:40;;;;;;;;;;;28.50;48.10;;;;;;5105591;27;42961;-80
2023/06/26 04:36:05;;;;;;;;;;;28.50;48.10;;;;;;5105517;27;43647;-81
2023/06/26 04:38:32;;;;;;;;;;;28.50;48.10;;;;;;5105951;27;43029;-81
2023/06/26 04:40:57;;;;;;;;;;;28.40;48.10;;;;;;5106513;27;44013;-79
2023/06/26 04:43:23;;;;;;;;;;;28.50;48.10;;;;;;5091067;27;42978;-80
2023/06/26 04:45:48;;;;;;;;;;;28.50;48.60;;;;;;5095798;27;43122;-81
2023/06/26 04:48:14;;;;;;;;;;;28.50;48.10;;;;;;5103644;27;42941;-80
2023/06/26 04:50:39;;;;;;;;;;;28.50;48.10;;;;;;5096079;27;43694;-79
2023/06/26 04:53:05;;;;;;;;;;;28.50;48.10;;;;;;5106270;27;42909;-78
2023/06/26 04:55:31;;;;;;;;;;;28.50;48.10;;;;;;5105953;27;43424;-82
2023/06/26 04:57:56;;;;;;;;;;;28.50;48.10;;;;;;5106311;27;43081;-82
2023/06/26 05:00:22;;;;;;;;;;;28.40;48.10;;;;;;5105997;27;43750;-81
2023/06/26 05:02:48;;;;;;;;;;;28.50;48.10;;;;;;5105926;27;43077;-81
2023/06/26 05:05:13;;;;;;;;;;;28.50;48.10;;;;;;5105188;27;43344;-81
2023/06/26 05:07:41;;;;;;;;;;;28.50;48.20;;;;;;5093830;27;42865;-80
2023/06/26 05:10:06;;;;;;;;;;;28.50;48.20;;;;;;5096671;27;43919;-80
2023/06/26 05:12:32;;;;;;;;;;;28.50;48.20;;;;;;5105999;27;43019;-81
2023/06/26 05:14:57;;;;;;;;;;;28.50;48.20;;;;;;5105622;27;43869;-81
2023/06/26 05:17:23;;;;;;;;;;;28.50;48.20;;;;;;5106311;27;42869;-81
2023/06/26 05:19:48;;;;;;;;;;;28.50;48.20;;;;;;5104764;27;42964;-79
2023/06/26 05:22:14;;;;;;;;;;;28.50;48.30;;;;;;5097270;27;42982;-78
2023/06/26 05:24:40;;;;;;;;;;;28.40;48.30;;;;;;5105806;27;43430;-80
2023/06/26 05:27:06;;;;;;;;;;;27.70;47.80;;;;;;5101432;27;43224;-79
2023/06/26 05:29:32;;;;;;;;;;;28.50;48.30;;;;;;5093244;27;43361;-78
2023/06/26 05:31:58;;;;;;;;;;;28.50;48.30;;;;;;5105604;27;44020;-77
2023/06/26 05:34:24;;;;;;;;;;;28.50;48.20;;;;;;5091483;27;42894;-83
2023/06/26 05:36:55;;;;;;;;;;;28.50;48.20;;;;;;5088076;27;43069;-83
2023/06/26 05:39:21;;;;;;;;;;;28.50;48.70;;;;;;5092674;27;43062;-83
2023/06/26 05:41:47;;;;;;;;;;;28.50;48.90;;;;;;5101904;27;42942;-82
2023/06/26 05:44:12;;;;;;;;;;;28.50;48.80;;;;;;5102096;27;43921;-83
2023/06/26 05:46:38;;;;;;;;;;;28.50;48.50;;;;;;5101117;27;42964;-79
2023/06/26 05:49:03;;;;;;;;;;;28.50;48.50;;;;;;5099051;27;43420;-78
2023/06/26 05:51:29;;;;;;;;;;;28.50;48.40;;;;;;5093965;27;42910;-79
2023/06/26 05:53:55;;;;;;;;;;;28.50;48.80;;;;;;5105016;27;43072;-79
2023/06/26 05:56:20;;;;;;;;;;;28.60;48.90;;;;;;5105133;27;43202;-79
2023/06/26 05:58:46;;;;;;;;;;;28.50;48.40;;;;;;5104205;27;43649;-78
2023/06/26 06:01:11;;;;;;;;;;;29.90;49.80;;;;;;5104889;27;42944;-79
2023/06/26 06:03:38;;;;;;;;;;;28.60;48.50;;;;;;5104070;27;43537;-78
2023/06/26 06:06:04;;;;;;;;;;;28.60;48.50;;;;;;5105369;27;42973;-81
2023/06/26 06:08:29;;;;;;;;;;;28.60;48.40;;;;;;5105754;27;43589;-80
2023/06/26 06:10:55;;;;;;;;;;;28.60;48.40;;;;;;5105239;27;42918;-79
2023/06/26 06:13:20;;;;;;;;;;;28.60;48.30;;;;;;5107140;27;43604;-82
2023/06/26 06:15:46;;;;;;;;;;;28.60;48.20;;;;;;5092261;27;43075;-82
2023/06/26 06:18:11;;;;;;;;;;;28.60;48.20;;;;;;5101037;27;42978;-82
2023/06/26 06:20:49;;;;;;;;;;;28.60;48.20;;;;;;5098419;27;43076;-78
2023/06/26 06:23:14;;;;;;;;;;;28.60;48.20;;;;;;5097867;27;43131;-81
2023/06/26 06:25:40;;;;;;;;;;;28.60;48.20;;;;;;5096914;27;43009;-81
2023/06/26 06:28:05;;;;;;;;;;;28.60;48.20;;;;;;5105047;27;43202;-82
2023/06/26 06:30:31;;;;;;;;;;;28.60;48.20;;;;;;5101169;27;43018;-83
2023/06/26 06:32:57;;;;;;;;;;;28.60;48.30;;;;;;5103114;27;43179;-83
2023/06/26 06:35:23;;;;;;;;;;;28.60;48.30;;;;;;5104594;27;43048;-82
2023/06/26 06:37:49;;;;;;;;;;;28.60;48.30;;;;;;5103771;27;43523;-81
2023/06/26 06:40:15;;;;;;;;;;;28.60;48.30;;;;;;5101319;27;43302;-82
2023/06/26 06:42:40;;;;;;;;;;;28.60;48.30;;;;;;5101994;27;43356;-81
2023/06/26 06:45:06;;;;;;;;;;;28.60;48.30;;;;;;5103798;27;43659;-85
2023/06/26 06:47:32;;;;;;;;;;;28.60;48.40;;;;;;5103275;27;43162;-82
2023/06/26 06:49:58;;;;;;;;;;;28.60;48.30;;;;;;5103193;27;43026;-81
2023/06/26 06:52:24;;;;;;;;;;;28.50;48.30;;;;;;5102336;27;43859;-86
2023/06/26 06:54:52;;;;;;;;;;;28.60;48.40;;;;;;5100576;27;42899;-81
2023/06/26 06:57:19;;;;;;;;;;;28.60;48.40;;;;;;5104039;27;43387;-81
2023/06/26 06:59:44;;;;;;;;;;;28.60;48.40;;;;;;5096989;27;43108;-80
2023/06/26 07:02:10;;;;;;;;;;;28.60;48.40;;;;;;5100625;27;43078;-82
2023/06/26 07:04:35;;;;;;;;;;;28.60;48.40;;;;;;5092924;27;43036;-82
2023/06/26 07:07:01;;;;;;;;;;;28.60;48.40;;;;;;5098970;27;43863;-78
2023/06/26 07:09:26;;;;;;;;;;;28.50;48.40;;;;;;5103509;27;43135;-78
2023/06/26 07:11:52;;;;;;;;;;;28.60;48.20;;;;;;5108978;27;43799;-78
2023/06/26 07:14:17;;;;;;;;;;;28.50;47.90;;;;;;5119681;27;42864;-80
2023/06/26 07:16:43;;;;;;;;;;;28.60;48.10;;;;;;5103816;27;43151;-79
2023/06/26 07:19:08;;;;;;;;;;;28.50;47.90;;;;;;5105810;27;42958;-77
2023/06/26 07:21:34;;;;;;;;;;;28.60;48.50;;;;;;5096933;27;43379;-78
2023/06/26 07:23:59;;;;;;;;;;;28.50;48.00;;;;;;5098003;27;43513;-79
2023/06/26 07:26:25;;;;;;;;;;;28.60;48.20;;;;;;5096844;27;43516;-78
2023/06/26 07:28:50;;;;;;;;;;;28.60;48.10;;;;;;5091058;27;43109;-76
2023/06/26 07:31:16;;;;;;;;;;;28.40;47.90;;;;;;5098299;27;44488;-77
2023/06/26 07:33:42;;;;;;;;;;;28.60;48.10;;;;;;5106050;27;42914;-77
2023/06/26 07:36:07;;;;;;;;;;;28.50;48.10;;;;;;5106296;27;43119;-78
2023/06/26 07:38:33;;;;;;;;;;;28.60;48.20;;;;;;5105142;27;43241;-80
2023/06/26 07:40:58;;;;;;;;;;;28.50;48.10;;;;;;5106241;27;43058;-78
2023/06/26 07:43:24;;;;;;;;;;;28.50;47.90;;;;;;5106310;27;43020;-79
2023/06/26 07:45:51;;;;;;;;;;;28.50;47.70;;;;;;5104712;27;43339;-78
2023/06/26 07:48:17;;;;;;;;;;;28.60;47.90;;;;;;5107386;27;42920;-76
2023/06/26 07:50:42;;;;;;;;;;;28.50;47.70;;;;;;5099589;27;43712;-77
2023/06/26 07:53:08;;;;;;;;;;;28.60;47.80;;;;;;5106266;27;42906;-83
2023/06/26 07:55:33;;;;;;;;;;;28.40;47.70;;;;;;5106679;27;43999;-81
2023/06/26 07:57:59;;;;;;;;;;;28.50;47.70;;;;;;5107450;27;42853;-78
2023/06/26 08:00:26;;;;;;;;;;;28.50;47.70;;;;;;5103705;27;44568;-77
2023/06/26 08:02:51;;;;;;;;;;;28.60;47.80;;;;;;5095289;27;43033;-78
2023/06/26 08:05:17;;;;;;;;;;;28.50;47.80;;;;;;5100780;27;42975;-80
2023/06/26 08:07:42;;;;;;;;;;;28.50;47.70;;;;;;5098911;27;42987;-84
2023/06/26 08:10:08;;;;;;;;;;;28.50;47.90;;;;;;5096761;27;43946;-77
2023/06/26 08:12:34;;;;;;;;;;;28.60;47.80;;;;;;5106802;27;43037;-77
2023/06/26 08:15:02;;;;;;;;;;;28.50;47.60;;;;;;5107122;27;43307;-80
2023/06/26 08:17:27;;;;;;;;;;;28.50;47.60;;;;;;5104889;27;43178;-78
2023/06/26 08:19:53;;;;;;;;;;;28.50;47.60;;;;;;5106111;27;43805;-79
2023/06/26 08:22:18;;;;;;;;;;;28.60;47.70;;;;;;5097455;27;43080;-81
2023/06/26 08:24:44;;;;;;;;;;;28.50;47.60;;;;;;5102967;27;43599;-78
2023/06/26 08:27:10;;;;;;;;;;;28.50;47.50;;;;;;5096999;27;43126;-77
2023/06/26 08:29:35;;;;;;;;;;;28.50;47.60;;;;;;5095396;27;43135;-78
2023/06/26 08:32:02;;;;;;;;;;;28.50;47.60;;;;;;5095215;27;43052;-78
2023/06/26 08:34:27;;;;;;;;;;;28.60;47.70;;;;;;5093578;27;42996;-80
2023/06/26 08:36:53;;;;;;;;;;;28.60;47.70;;;;;;5105594;27;42974;-78
2023/06/26 08:39:18;;;;;;;;;;;28.60;47.70;;;;;;5104261;27;43649;-78
2023/06/26 08:41:44;;;;;;;;;;;28.60;47.70;;;;;;5102777;27;43202;-78
2023/06/26 08:44:10;;;;;;;;;;;28.60;48.20;;;;;;5102538;27;43125;-78
2023/06/26 08:46:36;;;;;;;;;;;28.50;47.60;;;;;;5103861;27;43128;-77
2023/06/26 08:49:06;;;;;;;;;;;28.60;47.70;;;;;;5092490;27;43534;-77
2023/06/26 08:51:33;;;;;;;;;;;28.50;47.90;;;;;;5102435;27;42982;-77
2023/06/26 08:53:59;;;;;;;;;;;28.60;47.50;;;;;;5104374;27;44174;-79
2023/06/26 08:56:30;;;;;;;;;;;28.60;47.60;;;;;;5101986;27;43039;-77
2023/06/26 08:58:55;;;;;;;;;;;28.60;47.50;;;;;;5105895;27;43166;-82
2023/06/26 09:01:21;;;;;;;;;;;28.60;47.00;;;;;;5106652;27;42992;-79
2023/06/26 09:03:47;;;;;;;;;;;28.60;46.80;;;;;;5093101;27;43002;-82
2023/06/26 09:06:12;;;;;;;;;;;28.50;46.90;;;;;;5105976;27;43108;-83
2023/06/26 09:08:38;;;;;;;;;;;28.60;47.10;;;;;;5106283;27;43015;-78
2023/06/26 09:11:03;;;;;;;;;;;28.60;47.10;;;;;;5105182;27;42877;-77
2023/06/26 09:13:30;;;;;;;;;;;28.60;47.10;;;;;;5104916;27;43041;-78
2023/06/26 09:15:55;;;;;;;;;;;28.60;47.70;;;;;;5105132;27;43234;-77
2023/06/26 09:18:21;;;;;;;;;;;28.60;47.70;;;;;;5084930;27;43530;-77
2023/06/26 09:20:47;;;;;;;;;;;28.60;47.60;;;;;;5090608;27;43148;-78
2023/06/26 09:23:13;;;;;;;;;;;28.60;46.80;;;;;;5105671;27;43899;-81
2023/06/26 09:25:39;;;;;;;;;;;28.60;47.00;;;;;;5105550;27;42949;-77
2023/06/26 09:28:05;;;;;;;;;;;28.60;47.40;;;;;;5091631;27;43557;-78
2023/06/26 09:30:33;;;;;;;;;;;28.60;47.40;;;;;;5106679;27;43045;-76
2023/06/26 09:33:15;;;;;;;;;;;28.60;47.40;;;;;;5092434;27;43375;-77
2023/06/26 09:35:41;;;;;;;;;;;28.60;47.30;;;;;;5105248;27;42939;-80
2023/06/26 09:38:06;;;;;;;;;;;28.60;47.00;;;;;;5104445;27;43511;-79
2023/06/26 09:40:34;;;;;;;;;;;28.60;47.00;;;;;;5105032;27;42991;-79
2023/06/26 09:43:04;;;;;;;;;;;28.70;47.60;;;;;;5105530;27;42962;-79
2023/06/26 09:45:30;;;;;;;;;;;28.60;47.10;;;;;;5105271;27;42897;-77
2023/06/26 09:47:59;;;;;;;;;;;28.70;47.30;;;;;;5104895;27;43740;-77
2023/06/26 09:50:27;;;;;;;;;;;28.60;47.60;;;;;;5105245;27;43227;-79
2023/06/26 09:52:52;;;;;;;;;;;28.70;47.30;;;;;;5096374;27;42914;-79
2023/06/26 09:55:19;;;;;;;;;;;28.60;47.80;;;;;;5105512;27;42929;-77
2023/06/26 09:57:45;;;;;;;;;;;28.60;47.50;;;;;;5100008;27;42978;-78
2023/06/26 10:00:12;;;;;;;;;;;28.60;47.60;;;;;;5105441;27;42995;-78
2023/06/26 10:02:37;;;;;;;;;;;28.70;48.00;;;;;;5107101;27;43027;-77
2023/06/26 10:05:03;;;;;;;;;;;28.70;47.40;;;;;;5108599;27;42942;-81
2023/06/26 10:07:29;;;;;;;;;;;28.70;47.50;;;;;;5117067;27;43389;-78
2023/06/26 10:09:55;;;;;;;;;;;28.70;47.40;;;;;;5108634;27;43076;-78
2023/06/26 10:12:27;;;;;;;;;;;28.70;47.90;;;;;;5106114;27;44033;-76
2023/06/26 10:14:53;;;;;;;;;;;28.70;47.50;;;;;;5115538;27;42948;-81
2023/06/26 10:17:20;;;;;;;;;;;28.70;47.60;;;;;;5111443;27;45507;-78
2023/06/26 10:19:46;;;;;;;;;;;28.70;47.50;;;;;;5106251;27;43029;-83
2023/06/26 10:22:14;;;;;;;;;;;28.70;48.00;;;;;;5098297;27;43189;-76
2023/06/26 10:24:41;;;;;;;;;;;28.70;48.10;;;;;;5102461;27;42995;-78
2023/06/26 10:27:26;;;;;;;;;;;28.80;47.70;;;;;;5107031;27;42967;-78
2023/06/26 10:29:53;;;;;;;;;;;28.70;47.60;;;;;;5103142;27;43892;-77
2023/06/26 10:32:20;;;;;;;;;;;28.70;47.60;;;;;;5114007;27;42916;-77
2023/06/26 10:34:45;;;;;;;;;;;28.70;47.60;;;;;;5104252;27;43860;-77
2023/06/26 10:37:11;;;;;;;;;;;28.70;47.60;;;;;;5108557;27;43933;-81
2023/06/26 10:39:49;;;;;;;;;;;28.70;47.60;;;;;;5104942;27;43098;-79
2023/06/26 10:42:15;;;;;;;;;;;28.70;48.00;;;;;;5102082;27;43042;-83
2023/06/26 10:44:43;;;;;;;;;;;28.80;47.70;;;;;;5097244;27;43269;-78
2023/06/26 10:47:09;;;;;;;;;;;28.80;47.80;;;;;;5105872;27;43554;-80
2023/06/26 10:49:35;;;;;;;;;;;28.80;47.80;;;;;;5111138;27;43039;-80
2023/06/26 10:52:01;;;;;;;;;;;28.70;47.90;;;;;;5117672;27;43129;-80
2023/06/26 10:54:30;;;;;;;;;;;28.70;47.90;;;;;;5111598;27;42991;-79
2023/06/26 10:56:56;;;;;;;;;;;28.70;47.90;;;;;;5113000;27;43016;-79
2023/06/26 10:59:23;;;;;;;;;;;28.70;47.90;;;;;;5118974;27;43652;-79
2023/06/26 11:01:56;;;;;;;;;;;28.70;47.80;;;;;;5113074;27;43196;-79
2023/06/26 11:04:38;;;;;;;;;;;28.80;48.00;;;;;;5108853;27;44124;-81
2023/06/26 11:07:20;;;;;;;;;;;28.80;48.00;;;;;;5106425;27;42955;-79
2023/06/26 11:10:00;;;;;;;;;;;28.80;48.00;;;;;;5104781;27;42939;-78
2023/06/26 11:12:35;;;;;;;;;;;28.80;47.90;;;;;;5100343;27;43516;-77
2023/06/26 11:15:00;;;;;;;;;;;28.80;47.90;;;;;;5103033;27;42968;-78
2023/06/26 11:17:27;;;;;;;;;;;28.80;47.90;;;;;;5106795;27;42991;-79
2023/06/26 11:19:52;;;;;;;;;;;28.80;47.90;;;;;;5103386;27;42987;-78
2023/06/26 11:22:18;;;;;;;;;;;28.80;47.90;;;;;;5106384;27;42985;-78
2023/06/26 11:24:44;;;;;;;;;;;28.80;47.90;;;;;;5105613;27;42959;-78
2023/06/26 11:27:10;;;;;;;;;;;28.80;47.90;;;;;;5104922;27;43050;-78
2023/06/26 11:29:36;;;;;;;;;;;28.80;47.70;;;;;;5105135;27;43030;-80
2023/06/26 11:32:02;;;;;;;;;;;28.80;47.70;;;;;;5104670;27;43407;-78
2023/06/26 11:34:29;;;;;;;;;;;28.80;47.80;;;;;;5089656;27;43107;-81
2023/06/26 11:36:56;;;;;;;;;;;28.90;47.90;;;;;;5095454;27;43589;-80
2023/06/26 11:39:22;;;;;;;;;;;28.80;48.30;;;;;;5105704;27;42999;-78
2023/06/26 11:41:47;;;;;;;;;;;28.80;47.90;;;;;;5099630;27;43830;-80
2023/06/26 11:44:20;;;;;;;;;;;28.90;48.20;;;;;;5094503;27;42966;-85
2023/06/26 11:46:45;;;;;;;;;;;28.90;48.30;;;;;;5092568;27;44784;-79
2023/06/26 11:49:11;;;;;;;;;;;28.90;47.90;;;;;;5091964;27;43221;-79
2023/06/26 11:51:36;;;;;;;;;;;28.90;48.00;;;;;;5105514;27;43670;-78
2023/06/26 11:54:02;;;;;;;;;;;25.50;45.80;;;;;;5104799;27;42955;-78
2023/06/26 11:56:28;;;;;;;;;;;28.90;48.00;;;;;;5090653;27;43595;-79
2023/06/26 11:59:06;;;;;;;;;;;28.90;48.40;;;;;;5101827;27;43090;-84
2023/06/26 12:01:33;;;;;;;;;;;28.90;47.90;;;;;;5106108;27;43635;-78
2023/06/26 12:04:00;;;;;;;;;;;28.90;48.10;;;;;;5106473;27;42983;-79
2023/06/26 12:06:25;;;;;;;;;;;28.90;48.00;;;;;;5106259;27;43841;-84
2023/06/26 12:08:51;;;;;;;;;;;28.90;48.10;;;;;;5107002;27;43018;-79
2023/06/26 12:11:17;;;;;;;;;;;28.90;48.10;;;;;;5097696;27;43280;-80
2023/06/26 12:13:43;;;;;;;;;;;28.90;48.10;;;;;;5101557;27;43073;-79
2023/06/26 12:16:08;;;;;;;;;;;28.90;48.00;;;;;;5098885;27;43315;-80
2023/06/26 12:18:34;;;;;;;;;;;28.90;47.90;;;;;;5105932;27;42957;-80
2023/06/26 12:21:00;;;;;;;;;;;28.90;47.90;;;;;;5104481;27;44936;-79
2023/06/26 12:23:31;;;;;;;;;;;28.90;47.80;;;;;;5105678;27;43016;-78
2023/06/26 12:25:57;;;;;;;;;;;28.90;47.80;;;;;;5105869;27;43263;-78
2023/06/26 12:28:23;;;;;;;;;;;28.90;47.90;;;;;;5104111;27;43203;-79
2023/06/26 12:31:08;;;;;;;;;;;28.90;47.60;;;;;;5098872;27;43094;-79
2023/06/26 12:33:34;;;;;;;;;;;28.90;47.60;;;;;;5102258;27;43482;-81
2023/06/26 12:36:00;;;;;;;;;;;28.90;47.60;;;;;;5105136;27;43875;-81
2023/06/26 12:38:32;;;;;;;;;;;29.00;47.70;;;;;;5105978;27;42896;-81
2023/06/26 12:40:58;;;;;;;;;;;29.00;47.60;;;;;;5104467;27;45180;-80
2023/06/26 12:43:26;;;;;;;;;;;29.00;47.30;;;;;;5096006;27;43028;-79
2023/06/26 12:45:55;;;;;;;;;;;29.00;47.50;;;;;;5099828;27;42986;-80
2023/06/26 12:48:21;;;;;;;;;;;28.90;47.40;;;;;;5093793;27;43125;-79
2023/06/26 12:50:47;;;;;;;;;;;28.80;47.30;;;;;;5094820;27;44525;-78
2023/06/26 12:53:13;;;;;;;;;;;29.00;47.40;;;;;;5105816;27;42970;-79
2023/06/26 12:55:39;;;;;;;;;;;29.00;47.40;;;;;;5103212;27;42978;-80
2023/06/26 12:58:04;;;;;;;;;;;29.00;47.30;;;;;;5105924;27;43272;-78
2023/06/26 13:00:31;;;;;;;;;;;29.00;46.70;;;;;;5104329;27;45090;-78
2023/06/26 13:02:58;;;;;;;;;;;29.00;46.60;;;;;;5105923;27;42880;-77
2023/06/26 13:05:24;;;;;;;;;;;29.00;46.20;;;;;;5105461;27;42905;-80
2023/06/26 13:07:49;;;;;;;;;;;28.90;46.20;;;;;;5105252;27;43273;-77
2023/06/26 13:10:15;;;;;;;;;;;28.90;46.30;;;;;;5095556;27;45380;-77
2023/06/26 13:12:40;;;;;;;;;;;28.90;46.30;;;;;;5095184;27;43087;-80
2023/06/26 13:15:07;;;;;;;;;;;28.90;47.00;;;;;;5099161;27;44753;-76
2023/06/26 13:17:32;;;;;;;;;;;29.00;45.80;;;;;;5097424;27;43047;-76
2023/06/26 13:19:58;;;;;;;;;;;28.90;45.80;;;;;;5104808;27;43523;-76
2023/06/26 13:22:23;;;;;;;;;;;29.00;45.60;;;;;;5105703;27;43075;-75
2023/06/26 13:24:49;;;;;;;;;;;29.00;45.50;;;;;;5105587;27;42920;-84
2023/06/26 13:27:16;;;;;;;;;;;29.00;45.70;;;;;;5105485;27;42932;-77
2023/06/26 13:29:41;;;;;;;;;;;29.00;45.80;;;;;;5105611;27;43516;-81
2023/06/26 13:32:07;;;;;;;;;;;29.00;45.70;;;;;;5104620;27;42933;-77
2023/06/26 13:34:33;;;;;;;;;;;29.00;45.60;;;;;;5104878;27;42900;-77
2023/06/26 13:36:59;;;;;;;;;;;29.00;45.60;;;;;;5104842;27;42965;-77
2023/06/26 13:39:25;;;;;;;;;;;29.10;45.20;;;;;;5104103;27;44483;-81
2023/06/26 13:41:50;;;;;;;;;;;29.00;45.00;;;;;;5104964;27;43039;-79
2023/06/26 13:44:16;;;;;;;;;;;29.10;45.80;;;;;;5101301;27;43859;-76
2023/06/26 13:46:42;;;;;;;;;;;29.00;44.80;;;;;;5104661;27;42974;-77
2023/06/26 13:49:08;;;;;;;;;;;29.10;45.10;;;;;;5091479;27;43059;-77
2023/06/26 13:51:33;;;;;;;;;;;29.10;45.10;;;;;;5099734;27;43026;-76
2023/06/26 13:54:00;;;;;;;;;;;29.10;45.20;;;;;;5102751;27;43477;-77
2023/06/26 13:56:26;;;;;;;;;;;29.10;45.00;;;;;;5090614;27;43208;-78
2023/06/26 13:58:52;;;;;;;;;;;30.80;46.00;;;;;;5099627;27;43952;-79
2023/06/26 14:01:17;;;;;;;;;;;29.10;45.70;;;;;;5101424;27;42999;-78
2023/06/26 14:03:43;;;;;;;;;;;29.10;45.20;;;;;;5118376;27;44439;-79
2023/06/26 14:06:08;;;;;;;;;;;29.10;44.60;;;;;;5100149;27;43035;-78
2023/06/26 14:08:34;;;;;;;;;;;29.10;44.80;;;;;;5104358;27;42960;-80
2023/06/26 14:11:01;;;;;;;;;;;29.20;45.00;;;;;;5099616;27;42928;-82
2023/06/26 14:13:26;;;;;;;;;;;29.30;45.20;;;;;;5097933;27;42966;-78